createdAt,value
2019-04-28T00:00:43.829Z,38.61
2019-04-28T00:03:11.062Z,38.62
2019-04-28T00:05:37.952Z,38.60
2019-04-28T00:08:05.297Z,38.69
2019-04-28T00:10:32.601Z,38.61
2019-04-28T00:13:01.000Z,38.55
2019-04-28T00:15:28.331Z,38.51
2019-04-28T00:17:55.213Z,38.51
2019-04-28T00:20:22.101Z,38.46
2019-04-28T00:22:49.390Z,38.46
2019-04-28T00:25:16.324Z,38.47
2019-04-28T00:27:43.581Z,38.53
2019-04-28T00:30:11.735Z,38.40
2019-04-28T00:32:38.707Z,38.34
2019-04-28T00:35:05.584Z,38.34
2019-04-28T00:37:32.660Z,38.32
2019-04-28T00:40:01.028Z,38.38
2019-04-28T00:42:28.180Z,38.43
2019-04-28T00:44:55.383Z,38.51
2019-04-28T00:47:22.639Z,38.64
2019-04-28T00:49:51.784Z,38.70
2019-04-28T00:52:18.762Z,38.67
2019-04-28T00:54:45.914Z,38.53
2019-04-28T00:57:13.069Z,38.54
2019-04-28T00:59:52.001Z,38.47
2019-04-28T01:02:11.119Z,38.37
2019-04-28T01:04:38.161Z,38.28
2019-04-28T01:07:05.029Z,38.25
2019-04-28T01:09:31.912Z,38.28
2019-04-28T01:11:59.168Z,38.38
2019-04-28T01:14:27.756Z,38.40
2019-04-28T01:16:54.710Z,38.39
2019-04-28T01:19:21.925Z,38.28
2019-04-28T01:21:50.225Z,38.19
2019-04-28T01:24:17.260Z,38.13
2019-04-28T01:26:44.540Z,38.05
2019-04-28T01:29:11.417Z,37.92
2019-04-28T01:31:39.632Z,37.74
2019-04-28T01:34:06.979Z,37.65
2019-04-28T01:36:33.837Z,37.50
2019-04-28T01:39:00.740Z,37.51
2019-04-28T01:41:29.733Z,37.59
2019-04-28T01:43:57.016Z,37.60
2019-04-28T01:46:24.161Z,37.59
2019-04-28T01:48:51.324Z,37.52
2019-04-28T01:51:19.095Z,37.47
2019-04-28T01:53:47.067Z,37.36
2019-04-28T01:56:15.101Z,37.37
2019-04-28T01:58:41.980Z,37.33
2019-04-28T02:01:10.584Z,37.35
2019-04-28T02:03:37.701Z,37.35
2019-04-28T02:06:04.966Z,37.31
2019-04-28T02:08:32.210Z,37.29
2019-04-28T02:11:00.123Z,37.27
2019-04-28T02:13:27.534Z,37.20
2019-04-28T02:15:54.396Z,37.12
2019-04-28T02:18:21.276Z,37.06
2019-04-28T02:20:49.353Z,36.91
2019-04-28T02:23:16.968Z,36.84
2019-04-28T02:25:43.851Z,36.77
2019-04-28T02:28:11.872Z,36.78
2019-04-28T02:30:48.918Z,36.65
2019-04-28T02:33:07.805Z,36.55
2019-04-28T02:35:34.835Z,36.55
2019-04-28T02:38:01.820Z,36.53
2019-04-28T02:40:30.546Z,36.42
2019-04-28T02:42:57.634Z,36.38
2019-04-28T02:45:24.611Z,36.40
2019-04-28T02:47:52.253Z,36.59
2019-04-28T02:50:21.077Z,36.80
2019-04-28T02:52:48.214Z,36.87
2019-04-28T02:55:15.448Z,36.85
2019-04-28T02:57:42.314Z,36.80
2019-04-28T03:00:10.398Z,36.69
2019-04-28T03:02:37.832Z,36.62
2019-04-28T03:05:04.796Z,36.58
2019-04-28T03:07:31.741Z,36.60
2019-04-28T03:10:03.113Z,36.56
2019-04-28T03:12:27.534Z,36.56
2019-04-28T03:14:54.790Z,36.55
2019-04-28T03:17:21.675Z,36.57
2019-04-28T03:19:51.648Z,36.59
2019-04-28T03:22:17.607Z,36.56
2019-04-28T03:24:44.536Z,36.55
2019-04-28T03:27:11.788Z,36.47
2019-04-28T03:29:40.414Z,36.49
2019-04-28T03:32:28.423Z,36.47
2019-04-28T03:34:36.526Z,36.55
2019-04-28T03:37:04.080Z,36.63
2019-04-28T03:39:31.324Z,36.67
2019-04-28T03:42:00.135Z,36.51
2019-04-28T03:44:27.473Z,36.51
2019-04-28T03:46:54.431Z,36.51
2019-04-28T03:49:21.290Z,36.46
2019-04-28T03:51:50.605Z,36.39
2019-04-28T03:54:17.069Z,36.40
2019-04-28T03:56:43.972Z,36.35
2019-04-28T03:59:10.923Z,36.38
2019-04-28T04:01:53.080Z,36.34
2019-04-28T04:04:06.433Z,36.34
2019-04-28T04:06:33.785Z,36.38
2019-04-28T04:09:00.745Z,36.48
2019-04-28T04:11:31.211Z,36.47
2019-04-28T04:13:57.921Z,36.54
2019-04-28T04:16:24.870Z,36.53
2019-04-28T04:18:53.705Z,36.63
2019-04-28T04:21:21.378Z,36.70
2019-04-28T04:23:50.916Z,36.75
2019-04-28T04:26:17.513Z,36.70
2019-04-28T04:28:44.377Z,36.76
2019-04-28T04:31:11.242Z,36.76
2019-04-28T04:33:40.752Z,36.71
2019-04-28T04:36:06.761Z,36.58
2019-04-28T04:38:34.115Z,36.56
2019-04-28T04:41:01.738Z,36.50
2019-04-28T04:43:31.023Z,36.55
2019-04-28T04:45:57.466Z,36.59
2019-04-28T04:48:24.434Z,36.44
2019-04-28T04:50:51.700Z,36.31
2019-04-28T04:53:20.759Z,36.30
2019-04-28T04:55:47.307Z,36.21
2019-04-28T04:58:14.488Z,36.20
2019-04-28T05:00:43.357Z,36.21
2019-04-28T05:03:10.648Z,36.19
2019-04-28T05:05:40.350Z,36.19
2019-04-28T05:08:07.465Z,36.18
2019-04-28T05:10:34.321Z,36.22
2019-04-28T05:13:01.465Z,36.26
2019-04-28T05:15:30.423Z,36.19
2019-04-28T05:17:57.440Z,36.18
2019-04-28T05:20:24.305Z,36.00
2019-04-28T05:22:51.173Z,35.68
2019-04-28T05:25:18.060Z,35.63
2019-04-28T05:27:45.301Z,35.52
2019-04-28T05:30:13.942Z,35.54
2019-04-28T05:32:45.538Z,35.58
2019-04-28T05:35:10.214Z,35.63
2019-04-28T05:37:37.582Z,35.69
2019-04-28T05:40:04.495Z,35.68
2019-04-28T05:42:31.460Z,35.70
2019-04-28T05:44:59.922Z,35.71
2019-04-28T05:47:27.415Z,35.59
2019-04-28T05:49:54.762Z,35.52
2019-04-28T05:52:21.919Z,35.43
2019-04-28T05:54:49.620Z,35.36
2019-04-28T05:57:17.056Z,35.43
2019-04-28T05:59:46.085Z,35.61
2019-04-28T06:02:13.070Z,35.73
2019-04-28T06:04:40.526Z,35.81
2019-04-28T06:07:09.909Z,35.83
2019-04-28T06:09:36.904Z,35.74
2019-04-28T06:12:04.134Z,35.72
2019-04-28T06:14:31.010Z,35.72
2019-04-28T06:16:57.920Z,35.70
2019-04-28T06:19:25.112Z,35.61
2019-04-28T06:21:51.988Z,35.63
2019-04-28T06:24:18.898Z,35.63
2019-04-28T06:26:46.113Z,35.62
2019-04-28T06:29:12.987Z,35.60
2019-04-28T06:31:39.941Z,35.52
2019-04-28T06:34:07.184Z,35.47
2019-04-28T06:36:34.420Z,35.43
2019-04-28T06:39:01.402Z,35.53
2019-04-28T06:41:30.249Z,35.44
2019-04-28T06:43:57.129Z,35.55
2019-04-28T06:46:24.460Z,35.47
2019-04-28T06:48:51.339Z,35.41
2019-04-28T06:51:18.662Z,35.45
2019-04-28T06:53:45.902Z,35.32
2019-04-28T06:56:13.045Z,35.20
2019-04-28T06:58:39.930Z,35.21
2019-04-28T07:01:06.987Z,35.20
2019-04-28T07:03:33.917Z,35.12
2019-04-28T07:06:01.138Z,35.14
2019-04-28T07:08:28.305Z,35.14
2019-04-28T07:10:55.542Z,35.36
2019-04-28T07:13:22.415Z,35.39
2019-04-28T07:15:49.659Z,35.33
2019-04-28T07:18:16.894Z,35.35
2019-04-28T07:20:44.043Z,35.45
2019-04-28T07:23:10.928Z,35.50
2019-04-28T07:25:37.883Z,35.37
2019-04-28T07:28:05.117Z,35.31
2019-04-28T07:30:31.996Z,35.12
2019-04-28T07:32:59.073Z,34.96
2019-04-28T07:35:26.065Z,34.77
2019-04-28T07:37:53.273Z,34.73
2019-04-28T07:40:20.157Z,34.71
2019-04-28T07:42:47.389Z,34.71
2019-04-28T07:45:14.373Z,34.79
2019-04-28T07:47:41.344Z,34.84
2019-04-28T07:50:09.294Z,34.92
2019-04-28T07:52:36.279Z,35.10
2019-04-28T07:55:03.165Z,35.21
2019-04-28T07:57:30.400Z,35.14
2019-04-28T07:59:57.640Z,35.11
2019-04-28T08:02:24.522Z,34.96
2019-04-28T08:04:51.736Z,34.95
2019-04-28T08:07:18.630Z,34.97
2019-04-28T08:09:45.846Z,35.13
2019-04-28T08:12:13.027Z,35.09
2019-04-28T08:14:40.242Z,34.93
2019-04-28T08:17:07.169Z,34.97
2019-04-28T08:19:36.772Z,35.04
2019-04-28T08:22:02.976Z,35.21
2019-04-28T08:24:30.285Z,35.25
2019-04-28T08:26:57.256Z,35.08
2019-04-28T08:29:24.500Z,34.75
2019-04-28T08:31:51.458Z,34.74
2019-04-28T08:34:18.334Z,34.77
2019-04-28T08:36:45.466Z,34.75
2019-04-28T08:39:12.369Z,34.73
2019-04-28T08:41:39.303Z,34.59
2019-04-28T08:44:06.193Z,34.35
2019-04-28T08:46:33.061Z,34.26
2019-04-28T08:48:59.950Z,34.16
2019-04-28T08:51:28.118Z,33.94
2019-04-28T08:53:55.350Z,33.87
2019-04-28T08:56:23.286Z,33.67
2019-04-28T08:58:50.486Z,33.54
2019-04-28T09:01:17.398Z,33.18
2019-04-28T09:03:44.355Z,33.11
2019-04-28T09:06:11.637Z,33.40
2019-04-28T09:08:38.606Z,33.39
2019-04-28T09:11:05.924Z,33.49
2019-04-28T09:13:32.806Z,33.41
2019-04-28T09:15:59.757Z,33.27
2019-04-28T09:18:26.713Z,33.19
2019-04-28T09:20:53.648Z,32.59
2019-04-28T09:23:20.554Z,32.70
2019-04-28T09:25:47.775Z,32.85
2019-04-28T09:28:15.110Z,32.95
2019-04-28T09:30:42.018Z,33.07
2019-04-28T09:33:08.977Z,33.00
2019-04-28T09:35:36.208Z,32.67
2019-04-28T09:38:03.149Z,32.72
2019-04-28T09:40:30.033Z,32.57
2019-04-28T09:42:56.995Z,32.49
2019-04-28T09:45:23.876Z,32.56
2019-04-28T09:47:50.918Z,32.57
2019-04-28T09:50:17.849Z,32.74
2019-04-28T09:52:45.037Z,32.67
2019-04-28T09:55:11.992Z,32.68
2019-04-28T09:57:39.437Z,32.75
2019-04-28T10:00:06.446Z,32.78
2019-04-28T10:02:33.765Z,32.85
2019-04-28T10:05:00.718Z,32.73
2019-04-28T10:07:27.651Z,32.63
2019-04-28T10:09:54.549Z,32.36
2019-04-28T10:12:27.347Z,32.27
2019-04-28T10:14:50.290Z,32.23
2019-04-28T10:17:21.539Z,32.37
2019-04-28T10:19:48.812Z,32.33
2019-04-28T10:22:15.769Z,31.91
2019-04-28T10:24:42.668Z,31.86
2019-04-28T10:27:09.855Z,31.54
2019-04-28T10:29:37.091Z,31.39
2019-04-28T10:32:03.949Z,31.74
2019-04-28T10:34:31.192Z,32.12
2019-04-28T10:36:58.075Z,32.30
2019-04-28T10:39:25.394Z,32.27
2019-04-28T10:41:53.563Z,32.25
2019-04-28T10:44:20.818Z,31.94
2019-04-28T10:46:47.977Z,31.25
2019-04-28T10:49:14.930Z,31.07
2019-04-28T10:51:41.889Z,31.19
2019-04-28T10:54:08.822Z,31.33
2019-04-28T10:56:36.154Z,31.54
2019-04-28T10:59:03.036Z,31.57
2019-04-28T11:01:30.385Z,31.69
2019-04-28T11:03:57.621Z,31.58
2019-04-28T11:06:24.581Z,31.78
2019-04-28T11:08:51.806Z,31.66
2019-04-28T11:11:18.690Z,31.56
2019-04-28T11:13:45.909Z,31.39
2019-04-28T11:16:12.810Z,31.55
2019-04-28T11:18:39.850Z,31.47
2019-04-28T11:21:06.797Z,31.52
2019-04-28T11:23:33.986Z,31.59
2019-04-28T11:26:00.870Z,31.69
2019-04-28T11:28:27.797Z,31.56
2019-04-28T11:30:54.795Z,31.49
2019-04-28T11:33:22.077Z,31.47
2019-04-28T11:35:49.329Z,31.66
2019-04-28T11:38:16.369Z,31.92
2019-04-28T11:40:43.649Z,32.17
2019-04-28T11:43:11.003Z,32.25
2019-04-28T11:45:38.252Z,32.08
2019-04-28T11:48:05.174Z,32.00
2019-04-28T11:50:32.441Z,31.99
2019-04-28T11:52:59.329Z,32.01
2019-04-28T11:55:26.549Z,32.04
2019-04-28T11:57:53.689Z,31.95
2019-04-28T12:00:20.835Z,32.03
2019-04-28T12:02:48.165Z,32.06
2019-04-28T12:05:15.150Z,32.17
2019-04-28T12:07:42.527Z,32.28
2019-04-28T12:10:09.801Z,32.38
2019-04-28T12:12:36.841Z,32.57
2019-04-28T12:15:03.706Z,32.61
2019-04-28T12:17:30.910Z,32.67
2019-04-28T12:19:57.877Z,32.81
2019-04-28T12:22:25.202Z,32.95
2019-04-28T12:24:52.170Z,33.01
2019-04-28T12:27:19.050Z,33.04
2019-04-28T12:29:45.917Z,32.84
2019-04-28T12:32:13.094Z,32.79
2019-04-28T12:34:40.060Z,32.82
2019-04-28T12:37:07.381Z,32.87
2019-04-28T12:39:34.249Z,32.97
2019-04-28T12:42:01.318Z,33.06
2019-04-28T12:44:28.305Z,33.04
2019-04-28T12:46:55.591Z,32.94
2019-04-28T12:49:22.832Z,33.06
2019-04-28T12:51:49.994Z,33.09
2019-04-28T12:54:17.404Z,33.06
2019-04-28T12:56:44.785Z,33.13
2019-04-28T12:59:11.938Z,33.11
2019-04-28T13:01:38.807Z,33.17
2019-04-28T13:04:05.677Z,33.08
2019-04-28T13:06:35.276Z,33.08
2019-04-28T13:09:02.603Z,33.13
2019-04-28T13:11:31.216Z,32.99
2019-04-28T13:13:58.419Z,33.44
2019-04-28T13:16:25.341Z,33.47
2019-04-28T13:18:52.305Z,33.56
2019-04-28T13:21:19.581Z,33.52
2019-04-28T13:23:46.864Z,33.32
2019-04-28T13:26:13.940Z,33.02
2019-04-28T13:28:41.226Z,32.89
2019-04-28T13:31:08.112Z,32.89
2019-04-28T13:33:35.077Z,32.85
2019-04-28T13:36:14.069Z,32.75
2019-04-28T13:38:30.958Z,32.62
2019-04-28T13:40:57.854Z,32.37
2019-04-28T13:43:24.745Z,32.23
2019-04-28T13:45:51.709Z,32.15
2019-04-28T13:48:18.683Z,32.01
2019-04-28T13:50:48.824Z,31.94
2019-04-28T13:53:15.430Z,32.04
2019-04-28T13:55:42.780Z,32.05
2019-04-28T13:58:10.116Z,31.71
2019-04-28T14:00:37.114Z,31.43
2019-04-28T14:03:07.190Z,31.46
2019-04-28T14:05:33.201Z,31.55
2019-04-28T14:08:00.169Z,31.53
2019-04-28T14:10:27.053Z,31.54
2019-04-28T14:12:54.354Z,31.64
2019-04-28T14:15:21.306Z,31.59
2019-04-28T14:17:48.289Z,31.58
2019-04-28T14:20:15.610Z,31.19
2019-04-28T14:22:42.846Z,31.09
2019-04-28T14:25:09.813Z,31.07
2019-04-28T14:27:37.162Z,30.99
2019-04-28T14:30:05.263Z,31.09
2019-04-28T14:32:32.248Z,31.07
2019-04-28T14:34:59.524Z,31.18
2019-04-28T14:37:26.513Z,31.18
2019-04-28T14:39:53.431Z,31.23
2019-04-28T14:42:20.449Z,31.18
2019-04-28T14:44:47.601Z,31.19
2019-04-28T14:47:14.552Z,31.22
2019-04-28T14:49:41.514Z,31.23
2019-04-28T14:52:08.489Z,31.28
2019-04-28T14:54:35.448Z,31.21
2019-04-28T14:57:02.771Z,31.26
2019-04-28T14:59:30.775Z,31.28
2019-04-28T15:01:58.019Z,31.35
2019-04-28T15:04:25.065Z,31.39
2019-04-28T15:06:55.751Z,31.41
2019-04-28T15:09:21.285Z,31.46
2019-04-28T15:11:48.511Z,31.52
2019-04-28T15:14:16.827Z,31.55
2019-04-28T15:16:44.059Z,31.54
2019-04-28T15:19:11.020Z,31.50
2019-04-28T15:21:37.993Z,31.47
2019-04-28T15:24:05.290Z,31.51
2019-04-28T15:26:32.533Z,31.66
2019-04-28T15:28:59.432Z,31.69
2019-04-28T15:31:26.646Z,31.58
2019-04-28T15:33:53.576Z,31.49
2019-04-28T15:36:20.726Z,31.40
2019-04-28T15:38:48.190Z,31.17
2019-04-28T15:41:21.861Z,31.00
2019-04-28T15:43:44.035Z,30.91
2019-04-28T15:46:11.013Z,30.83
2019-04-28T15:48:38.333Z,30.71
2019-04-28T15:51:05.293Z,30.61
2019-04-28T15:53:32.539Z,30.72
2019-04-28T15:55:59.484Z,30.77
2019-04-28T15:58:27.419Z,30.78
2019-04-28T16:00:55.649Z,30.74
2019-04-28T16:03:22.627Z,30.76
2019-04-28T16:05:49.713Z,30.49
2019-04-28T16:08:16.957Z,30.25
2019-04-28T16:10:44.125Z,29.93
2019-04-28T16:13:11.380Z,29.83
2019-04-28T16:15:38.629Z,29.75
2019-04-28T16:18:05.781Z,29.72
2019-04-28T16:20:32.720Z,29.77
2019-04-28T16:22:59.604Z,29.74
2019-04-28T16:25:26.823Z,29.78
2019-04-28T16:27:53.795Z,29.89
2019-04-28T16:30:21.015Z,29.96
2019-04-28T16:32:47.899Z,30.10
2019-04-28T16:35:14.774Z,30.16
2019-04-28T16:37:42.048Z,30.23
2019-04-28T16:40:09.658Z,30.24
2019-04-28T16:42:37.192Z,30.21
2019-04-28T16:45:04.417Z,30.18
2019-04-28T16:47:31.324Z,30.25
2019-04-28T16:49:58.271Z,30.32
2019-04-28T16:52:25.599Z,30.39
2019-04-28T16:54:52.542Z,30.41
2019-04-28T16:57:19.500Z,30.48
2019-04-28T16:59:46.715Z,30.51
2019-04-28T17:02:13.653Z,30.56
2019-04-28T17:04:40.823Z,30.57
2019-04-28T17:07:08.073Z,30.55
2019-04-28T17:09:35.050Z,30.68
2019-04-28T17:12:01.943Z,30.72
2019-04-28T17:14:29.203Z,30.71
2019-04-28T17:16:56.073Z,30.80
2019-04-28T17:19:22.964Z,30.82
2019-04-28T17:21:49.924Z,30.85
2019-04-28T17:24:16.943Z,30.96
2019-04-28T17:26:44.139Z,31.03
2019-04-28T17:29:12.550Z,31.04
2019-04-28T17:31:40.583Z,31.03
2019-04-28T17:34:07.861Z,31.10
2019-04-28T17:36:34.863Z,31.10
2019-04-28T17:39:02.142Z,31.16
2019-04-28T17:41:30.647Z,31.21
2019-04-28T17:43:57.540Z,31.23
2019-04-28T17:46:24.509Z,31.15
2019-04-28T17:48:51.773Z,31.24
2019-04-28T17:51:18.924Z,31.28
2019-04-28T17:53:45.827Z,31.35
2019-04-28T17:56:12.762Z,31.47
2019-04-28T17:58:39.976Z,31.61
2019-04-28T18:01:06.967Z,31.64
2019-04-28T18:03:34.168Z,31.64
2019-04-28T18:06:01.059Z,31.70
2019-04-28T18:08:28.569Z,31.72
2019-04-28T18:10:55.721Z,31.98
2019-04-28T18:13:22.698Z,32.38
2019-04-28T18:15:49.665Z,32.73
2019-04-28T18:18:16.611Z,33.13
2019-04-28T18:20:43.516Z,33.48
2019-04-28T18:23:10.986Z,33.80
2019-04-28T18:25:37.943Z,33.98
2019-04-28T18:28:04.957Z,34.15
2019-04-28T18:30:32.212Z,34.26
2019-04-28T18:32:59.161Z,34.37
2019-04-28T18:35:26.416Z,34.57
2019-04-28T18:37:53.377Z,34.82
2019-04-28T18:40:20.241Z,34.93
2019-04-28T18:42:47.145Z,35.10
2019-04-28T18:45:14.108Z,35.27
2019-04-28T18:47:41.046Z,35.39
2019-04-28T18:50:08.278Z,35.62
2019-04-28T18:52:35.435Z,35.84
2019-04-28T18:55:02.402Z,35.93
2019-04-28T18:57:29.745Z,36.01
2019-04-28T18:59:57.252Z,36.01
2019-04-28T19:02:24.194Z,36.62
2019-04-28T19:04:51.229Z,37.10
2019-04-28T19:07:18.188Z,37.10
2019-04-28T19:09:45.519Z,37.28
2019-04-28T19:12:12.528Z,37.37
2019-04-28T19:14:39.793Z,37.17
2019-04-28T19:17:07.038Z,37.02
2019-04-28T19:19:34.182Z,36.94
2019-04-28T19:22:01.437Z,36.93
2019-04-28T19:24:29.740Z,36.84
2019-04-28T19:26:56.965Z,36.78
2019-04-28T19:29:24.156Z,36.74
2019-04-28T19:31:51.058Z,36.78
2019-04-28T19:34:17.929Z,36.76
2019-04-28T19:36:45.029Z,36.80
2019-04-28T19:39:12.001Z,36.81
2019-04-28T19:41:40.643Z,36.86
2019-04-28T19:44:07.848Z,36.81
2019-04-28T19:46:35.240Z,36.87
2019-04-28T19:49:02.268Z,36.92
2019-04-28T19:51:32.116Z,36.98
2019-04-28T19:53:58.197Z,36.93
2019-04-28T19:56:25.185Z,36.98
2019-04-28T19:58:52.113Z,36.94
2019-04-28T20:01:19.342Z,36.87
2019-04-28T20:03:46.293Z,36.79
2019-04-28T20:06:13.154Z,36.74
2019-04-28T20:08:40.372Z,36.77
2019-04-28T20:11:07.525Z,36.63
2019-04-28T20:13:34.390Z,36.55
2019-04-28T20:16:01.356Z,36.51
2019-04-28T20:18:29.642Z,36.50
2019-04-28T20:20:56.805Z,36.59
2019-04-28T20:23:24.086Z,36.75
2019-04-28T20:25:51.038Z,36.73
2019-04-28T20:28:18.405Z,36.73
2019-04-28T20:30:45.693Z,36.78
2019-04-28T20:33:13.029Z,36.79
2019-04-28T20:35:39.969Z,36.83
2019-04-28T20:38:07.213Z,36.93
2019-04-28T20:40:34.516Z,37.01
2019-04-28T20:43:02.146Z,36.96
2019-04-28T20:45:29.562Z,36.86
2019-04-28T20:47:56.837Z,36.78
2019-04-28T20:50:24.077Z,36.81
2019-04-28T20:52:50.961Z,36.79
2019-04-28T20:55:18.308Z,36.65
2019-04-28T20:57:45.355Z,36.48
2019-04-28T21:00:12.502Z,36.43
2019-04-28T21:02:41.002Z,36.35
2019-04-28T21:05:08.112Z,36.24
2019-04-28T21:07:35.405Z,36.16
2019-04-28T21:10:02.368Z,36.11
2019-04-28T21:12:30.796Z,35.98
2019-04-28T21:14:58.022Z,35.88
2019-04-28T21:17:25.382Z,35.79
2019-04-28T21:19:52.335Z,35.78
2019-04-28T21:22:19.226Z,35.75
2019-04-28T21:24:46.198Z,35.75
2019-04-28T21:27:13.145Z,35.75
2019-04-28T21:29:40.081Z,35.68
2019-04-28T21:32:06.994Z,35.67
2019-04-28T21:34:33.875Z,35.66
2019-04-28T21:37:01.801Z,35.58
2019-04-28T21:39:29.033Z,35.56
2019-04-28T21:41:56.185Z,35.62
2019-04-28T21:44:23.077Z,35.62
2019-04-28T21:46:50.393Z,35.58
2019-04-28T21:49:17.648Z,35.53
2019-04-28T21:51:44.796Z,35.42
2019-04-28T21:54:11.938Z,35.34
2019-04-28T21:56:39.102Z,35.29
2019-04-28T21:59:06.965Z,35.25
2019-04-28T22:01:33.916Z,35.30
2019-04-28T22:04:00.910Z,35.16
2019-04-28T22:06:27.839Z,35.03
2019-04-28T22:08:55.045Z,35.04
2019-04-28T22:11:21.910Z,35.13
2019-04-28T22:13:48.800Z,35.06
2019-04-28T22:16:15.768Z,35.04
2019-04-28T22:18:42.641Z,34.98
2019-04-28T22:21:09.910Z,34.99
2019-04-28T22:23:36.792Z,34.95
2019-04-28T22:26:04.110Z,34.95
2019-04-28T22:28:32.228Z,35.05
2019-04-28T22:30:59.510Z,35.12
2019-04-28T22:33:26.374Z,35.18
2019-04-28T22:35:53.238Z,35.19
2019-04-28T22:38:20.463Z,35.20
2019-04-28T22:40:47.713Z,35.20
2019-04-28T22:43:14.645Z,35.28
2019-04-28T22:45:41.897Z,35.32
2019-04-28T22:48:09.041Z,35.28
2019-04-28T22:50:36.297Z,35.34
2019-04-28T22:53:03.182Z,35.35
2019-04-28T22:55:30.151Z,35.35
2019-04-28T22:57:57.010Z,35.41
2019-04-28T23:00:25.336Z,35.46
2019-04-28T23:02:54.209Z,35.47
2019-04-28T23:05:21.108Z,35.50
2019-04-28T23:07:48.412Z,35.57
2019-04-28T23:10:15.733Z,35.63
2019-04-28T23:12:42.619Z,35.59
2019-04-28T23:15:09.572Z,35.64
2019-04-28T23:17:36.529Z,35.69
2019-04-28T23:20:03.421Z,35.70
2019-04-28T23:22:30.581Z,35.74
2019-04-28T23:24:57.844Z,35.78
2019-04-28T23:27:24.728Z,35.80
2019-04-28T23:29:52.049Z,35.92
2019-04-28T23:32:19.003Z,35.89
2019-04-28T23:34:46.126Z,35.96
2019-04-28T23:37:14.415Z,36.01
2019-04-28T23:39:41.390Z,36.10
2019-04-28T23:42:08.337Z,36.08
2019-04-28T23:44:35.549Z,36.07
2019-04-28T23:47:02.433Z,36.10
2019-04-28T23:49:29.650Z,36.10
2019-04-28T23:51:56.908Z,36.11
2019-04-28T23:54:23.870Z,36.10
2019-04-28T23:56:51.097Z,36.16
2019-04-28T23:59:17.965Z,36.13
